sensor_id;sensor_type;location;lat;lon;timestamp;P1;durP1;ratioP1;P2;durP2;ratioP2
11313;SDS011;5712;48.858;9.206;2024-02-21T00:01:50;7.03;;;2.90;;
11313;SDS011;5712;48.858;9.206;2024-02-21T00:04:17;5.07;;;2.70;;
11313;SDS011;5712;48.858;9.206;2024-02-21T00:06:43;5.57;;;3.17;;
11313;SDS011;5712;48.858;9.206;2024-02-21T00:09:10;7.40;;;3.50;;
11313;SDS011;5712;48.858;9.206;2024-02-21T00:11:38;10.27;;;3.67;;
11313;SDS011;5712;48.858;9.206;2024-02-21T00:14:04;8.07;;;3.03;;
11313;SDS011;5712;48.858;9.206;2024-02-21T00:16:31;6.37;;;3.03;;
11313;SDS011;5712;48.858;9.206;2024-02-21T00:18:57;5.97;;;3.10;;
11313;SDS011;5712;48.858;9.206;2024-02-21T00:21:24;5.67;;;2.67;;
11313;SDS011;5712;48.858;9.206;2024-02-21T00:23:50;8.67;;;2.90;;
11313;SDS011;5712;48.858;9.206;2024-02-21T00:26:17;5.93;;;3.77;;
11313;SDS011;5712;48.858;9.206;2024-02-21T00:28:45;4.37;;;2.80;;
11313;SDS011;5712;48.858;9.206;2024-02-21T00:31:11;8.00;;;2.93;;
11313;SDS011;5712;48.858;9.206;2024-02-21T00:33:38;8.43;;;3.10;;
11313;SDS011;5712;48.858;9.206;2024-02-21T00:36:04;7.23;;;3.00;;
11313;SDS011;5712;48.858;9.206;2024-02-21T00:38:31;5.27;;;2.70;;
11313;SDS011;5712;48.858;9.206;2024-02-21T00:40:57;3.63;;;2.40;;
11313;SDS011;5712;48.858;9.206;2024-02-21T00:43:24;9.13;;;3.47;;
11313;SDS011;5712;48.858;9.206;2024-02-21T00:45:51;5.33;;;3.03;;
11313;SDS011;5712;48.858;9.206;2024-02-21T00:48:18;8.20;;;3.57;;
11313;SDS011;5712;48.858;9.206;2024-02-21T00:50:45;5.03;;;2.77;;
11313;SDS011;5712;48.858;9.206;2024-02-21T00:53:11;4.17;;;2.90;;
11313;SDS011;5712;48.858;9.206;2024-02-21T00:55:38;6.47;;;2.80;;
11313;SDS011;5712;48.858;9.206;2024-02-21T00:58:05;5.93;;;3.20;;
11313;SDS011;5712;48.858;9.206;2024-02-21T01:00:31;7.33;;;2.97;;
11313;SDS011;5712;48.858;9.206;2024-02-21T01:02:59;4.70;;;2.87;;
11313;SDS011;5712;48.858;9.206;2024-02-21T01:05:26;6.37;;;2.60;;
11313;SDS011;5712;48.858;9.206;2024-02-21T01:07:54;6.80;;;2.90;;
11313;SDS011;5712;48.858;9.206;2024-02-21T01:10:20;4.90;;;2.70;;
11313;SDS011;5712;48.858;9.206;2024-02-21T01:12:47;6.87;;;2.77;;
11313;SDS011;5712;48.858;9.206;2024-02-21T01:15:14;3.83;;;2.40;;
11313;SDS011;5712;48.858;9.206;2024-02-21T01:17:40;4.40;;;2.33;;
11313;SDS011;5712;48.858;9.206;2024-02-21T01:20:09;4.33;;;2.40;;
11313;SDS011;5712;48.858;9.206;2024-02-21T01:22:36;6.10;;;2.90;;
11313;SDS011;5712;48.858;9.206;2024-02-21T01:25:02;6.57;;;2.80;;
11313;SDS011;5712;48.858;9.206;2024-02-21T01:27:29;5.40;;;2.60;;
11313;SDS011;5712;48.858;9.206;2024-02-21T01:29:55;6.17;;;3.20;;
11313;SDS011;5712;48.858;9.206;2024-02-21T01:32:21;11.77;;;3.07;;
11313;SDS011;5712;48.858;9.206;2024-02-21T01:34:49;7.80;;;3.30;;
11313;SDS011;5712;48.858;9.206;2024-02-21T01:37:17;7.17;;;2.70;;
11313;SDS011;5712;48.858;9.206;2024-02-21T01:39:43;6.53;;;2.80;;
11313;SDS011;5712;48.858;9.206;2024-02-21T01:42:10;8.83;;;3.00;;
11313;SDS011;5712;48.858;9.206;2024-02-21T01:44:36;6.83;;;3.20;;
11313;SDS011;5712;48.858;9.206;2024-02-21T01:47:03;8.57;;;3.20;;
11313;SDS011;5712;48.858;9.206;2024-02-21T01:49:30;4.80;;;2.60;;
11313;SDS011;5712;48.858;9.206;2024-02-21T01:51:57;6.33;;;3.00;;
11313;SDS011;5712;48.858;9.206;2024-02-21T01:54:25;5.30;;;2.30;;
11313;SDS011;5712;48.858;9.206;2024-02-21T01:56:53;5.60;;;2.53;;
11313;SDS011;5712;48.858;9.206;2024-02-21T01:59:20;7.73;;;2.60;;
11313;SDS011;5712;48.858;9.206;2024-02-21T02:01:47;5.77;;;2.60;;
11313;SDS011;5712;48.858;9.206;2024-02-21T02:04:14;6.50;;;2.63;;
11313;SDS011;5712;48.858;9.206;2024-02-21T02:06:41;5.47;;;2.90;;
11313;SDS011;5712;48.858;9.206;2024-02-21T02:09:07;3.40;;;2.33;;
11313;SDS011;5712;48.858;9.206;2024-02-21T02:11:35;8.33;;;2.63;;
11313;SDS011;5712;48.858;9.206;2024-02-21T02:14:02;8.07;;;2.83;;
11313;SDS011;5712;48.858;9.206;2024-02-21T02:16:29;5.73;;;2.67;;
11313;SDS011;5712;48.858;9.206;2024-02-21T02:18:55;5.30;;;3.30;;
11313;SDS011;5712;48.858;9.206;2024-02-21T02:21:23;10.33;;;3.10;;
11313;SDS011;5712;48.858;9.206;2024-02-21T02:23:56;5.73;;;3.20;;
11313;SDS011;5712;48.858;9.206;2024-02-21T02:26:23;6.30;;;3.17;;
11313;SDS011;5712;48.858;9.206;2024-02-21T02:28:49;5.83;;;3.10;;
11313;SDS011;5712;48.858;9.206;2024-02-21T02:31:16;7.93;;;2.83;;
11313;SDS011;5712;48.858;9.206;2024-02-21T02:33:42;7.50;;;3.13;;
11313;SDS011;5712;48.858;9.206;2024-02-21T02:36:09;7.17;;;3.07;;
11313;SDS011;5712;48.858;9.206;2024-02-21T02:38:35;7.17;;;3.00;;
11313;SDS011;5712;48.858;9.206;2024-02-21T02:41:04;7.00;;;3.03;;
11313;SDS011;5712;48.858;9.206;2024-02-21T02:43:31;7.30;;;2.60;;
11313;SDS011;5712;48.858;9.206;2024-02-21T02:45:57;5.17;;;2.73;;
11313;SDS011;5712;48.858;9.206;2024-02-21T02:48:24;8.27;;;2.87;;
11313;SDS011;5712;48.858;9.206;2024-02-21T02:50:50;5.30;;;2.40;;
11313;SDS011;5712;48.858;9.206;2024-02-21T02:53:17;4.43;;;2.30;;
11313;SDS011;5712;48.858;9.206;2024-02-21T02:55:43;7.47;;;3.00;;
11313;SDS011;5712;48.858;9.206;2024-02-21T02:58:11;6.20;;;2.43;;
11313;SDS011;5712;48.858;9.206;2024-02-21T03:00:37;4.07;;;2.73;;
11313;SDS011;5712;48.858;9.206;2024-02-21T03:03:04;3.70;;;1.93;;
11313;SDS011;5712;48.858;9.206;2024-02-21T03:05:31;5.13;;;2.40;;
11313;SDS011;5712;48.858;9.206;2024-02-21T03:07:57;7.07;;;2.50;;
11313;SDS011;5712;48.858;9.206;2024-02-21T03:10:24;6.20;;;2.60;;
11313;SDS011;5712;48.858;9.206;2024-02-21T03:12:51;8.60;;;2.17;;
11313;SDS011;5712;48.858;9.206;2024-02-21T03:15:20;5.73;;;2.47;;
11313;SDS011;5712;48.858;9.206;2024-02-21T03:17:47;5.87;;;2.50;;
11313;SDS011;5712;48.858;9.206;2024-02-21T03:20:13;3.60;;;2.30;;
11313;SDS011;5712;48.858;9.206;2024-02-21T03:22:40;5.23;;;2.50;;
11313;SDS011;5712;48.858;9.206;2024-02-21T03:25:07;3.87;;;2.67;;
11313;SDS011;5712;48.858;9.206;2024-02-21T03:27:34;6.60;;;2.30;;
11313;SDS011;5712;48.858;9.206;2024-02-21T03:30:00;5.50;;;2.70;;
11313;SDS011;5712;48.858;9.206;2024-02-21T03:32:28;4.10;;;2.20;;
11313;SDS011;5712;48.858;9.206;2024-02-21T03:34:55;6.43;;;2.63;;
11313;SDS011;5712;48.858;9.206;2024-02-21T03:37:21;4.20;;;2.37;;
11313;SDS011;5712;48.858;9.206;2024-02-21T03:39:48;4.63;;;2.13;;
11313;SDS011;5712;48.858;9.206;2024-02-21T03:42:14;6.57;;;2.33;;
11313;SDS011;5712;48.858;9.206;2024-02-21T03:44:41;5.77;;;2.27;;
11313;SDS011;5712;48.858;9.206;2024-02-21T03:47:07;5.10;;;2.50;;
11313;SDS011;5712;48.858;9.206;2024-02-21T03:49:37;6.97;;;2.60;;
11313;SDS011;5712;48.858;9.206;2024-02-21T03:52:03;9.67;;;3.03;;
11313;SDS011;5712;48.858;9.206;2024-02-21T03:54:30;4.53;;;2.47;;
11313;SDS011;5712;48.858;9.206;2024-02-21T03:56:57;6.50;;;2.93;;
11313;SDS011;5712;48.858;9.206;2024-02-21T03:59:23;8.30;;;2.80;;
11313;SDS011;5712;48.858;9.206;2024-02-21T04:01:51;4.23;;;2.20;;
11313;SDS011;5712;48.858;9.206;2024-02-21T04:04:17;4.60;;;2.73;;
11313;SDS011;5712;48.858;9.206;2024-02-21T04:06:48;6.10;;;2.60;;
11313;SDS011;5712;48.858;9.206;2024-02-21T04:09:15;6.87;;;2.43;;
11313;SDS011;5712;48.858;9.206;2024-02-21T04:11:41;4.70;;;2.50;;
11313;SDS011;5712;48.858;9.206;2024-02-21T04:14:08;7.20;;;2.70;;
11313;SDS011;5712;48.858;9.206;2024-02-21T04:16:36;6.23;;;2.50;;
11313;SDS011;5712;48.858;9.206;2024-02-21T04:19:03;6.10;;;2.30;;
11313;SDS011;5712;48.858;9.206;2024-02-21T04:21:31;6.40;;;2.43;;
11313;SDS011;5712;48.858;9.206;2024-02-21T04:23:59;4.17;;;2.50;;
11313;SDS011;5712;48.858;9.206;2024-02-21T04:26:26;3.93;;;2.00;;
11313;SDS011;5712;48.858;9.206;2024-02-21T04:28:53;5.20;;;3.03;;
11313;SDS011;5712;48.858;9.206;2024-02-21T04:31:20;7.90;;;2.83;;
11313;SDS011;5712;48.858;9.206;2024-02-21T04:33:46;4.33;;;2.40;;
11313;SDS011;5712;48.858;9.206;2024-02-21T04:36:12;9.23;;;2.83;;
11313;SDS011;5712;48.858;9.206;2024-02-21T04:38:39;7.57;;;2.77;;
11313;SDS011;5712;48.858;9.206;2024-02-21T04:41:07;6.17;;;2.90;;
11313;SDS011;5712;48.858;9.206;2024-02-21T04:43:34;6.97;;;2.77;;
11313;SDS011;5712;48.858;9.206;2024-02-21T04:46:00;7.00;;;3.43;;
11313;SDS011;5712;48.858;9.206;2024-02-21T04:48:27;4.67;;;2.77;;
11313;SDS011;5712;48.858;9.206;2024-02-21T04:50:53;6.03;;;2.70;;
11313;SDS011;5712;48.858;9.206;2024-02-21T04:53:20;6.43;;;2.80;;
11313;SDS011;5712;48.858;9.206;2024-02-21T04:55:47;7.67;;;2.80;;
11313;SDS011;5712;48.858;9.206;2024-02-21T04:58:15;4.67;;;2.47;;
11313;SDS011;5712;48.858;9.206;2024-02-21T05:00:41;5.10;;;2.13;;
11313;SDS011;5712;48.858;9.206;2024-02-21T05:03:08;4.70;;;2.70;;
11313;SDS011;5712;48.858;9.206;2024-02-21T05:05:34;4.63;;;2.00;;
11313;SDS011;5712;48.858;9.206;2024-02-21T05:08:01;4.37;;;2.60;;
11313;SDS011;5712;48.858;9.206;2024-02-21T05:10:27;6.40;;;2.87;;
11313;SDS011;5712;48.858;9.206;2024-02-21T05:12:54;7.23;;;2.50;;
11313;SDS011;5712;48.858;9.206;2024-02-21T05:15:22;5.93;;;2.60;;
11313;SDS011;5712;48.858;9.206;2024-02-21T05:17:48;5.10;;;2.83;;
11313;SDS011;5712;48.858;9.206;2024-02-21T05:20:15;5.47;;;2.87;;
11313;SDS011;5712;48.858;9.206;2024-02-21T05:22:41;4.67;;;2.40;;
11313;SDS011;5712;48.858;9.206;2024-02-21T05:25:08;5.07;;;2.70;;
11313;SDS011;5712;48.858;9.206;2024-02-21T05:27:35;5.40;;;2.50;;
11313;SDS011;5712;48.858;9.206;2024-02-21T05:30:04;4.33;;;3.00;;
11313;SDS011;5712;48.858;9.206;2024-02-21T05:32:32;5.80;;;3.03;;
11313;SDS011;5712;48.858;9.206;2024-02-21T05:34:59;6.57;;;3.20;;
11313;SDS011;5712;48.858;9.206;2024-02-21T05:37:26;8.17;;;3.40;;
11313;SDS011;5712;48.858;9.206;2024-02-21T05:39:52;6.90;;;3.37;;
11313;SDS011;5712;48.858;9.206;2024-02-21T05:42:19;6.10;;;3.27;;
11313;SDS011;5712;48.858;9.206;2024-02-21T05:44:45;5.53;;;3.23;;
11313;SDS011;5712;48.858;9.206;2024-02-21T05:47:12;6.53;;;2.83;;
11313;SDS011;5712;48.858;9.206;2024-02-21T05:49:41;7.27;;;2.73;;
11313;SDS011;5712;48.858;9.206;2024-02-21T05:52:08;6.77;;;2.67;;
11313;SDS011;5712;48.858;9.206;2024-02-21T05:54:37;5.63;;;3.07;;
11313;SDS011;5712;48.858;9.206;2024-02-21T05:57:03;5.67;;;2.43;;
11313;SDS011;5712;48.858;9.206;2024-02-21T05:59:30;4.73;;;2.80;;
11313;SDS011;5712;48.858;9.206;2024-02-21T06:01:56;3.87;;;2.60;;
11313;SDS011;5712;48.858;9.206;2024-02-21T06:04:23;5.10;;;2.70;;
11313;SDS011;5712;48.858;9.206;2024-02-21T06:06:51;6.80;;;2.60;;
11313;SDS011;5712;48.858;9.206;2024-02-21T06:09:18;6.00;;;2.63;;
11313;SDS011;5712;48.858;9.206;2024-02-21T06:11:44;4.13;;;2.50;;
11313;SDS011;5712;48.858;9.206;2024-02-21T06:14:11;4.50;;;2.60;;
11313;SDS011;5712;48.858;9.206;2024-02-21T06:16:37;6.27;;;2.80;;
11313;SDS011;5712;48.858;9.206;2024-02-21T06:19:04;4.50;;;2.77;;
11313;SDS011;5712;48.858;9.206;2024-02-21T06:21:30;9.93;;;3.27;;
11313;SDS011;5712;48.858;9.206;2024-02-21T06:23:58;5.80;;;2.60;;
11313;SDS011;5712;48.858;9.206;2024-02-21T06:26:25;2.97;;;2.53;;
11313;SDS011;5712;48.858;9.206;2024-02-21T06:28:51;4.80;;;2.47;;
11313;SDS011;5712;48.858;9.206;2024-02-21T06:31:18;5.03;;;2.30;;
11313;SDS011;5712;48.858;9.206;2024-02-21T06:33:44;5.53;;;2.23;;
11313;SDS011;5712;48.858;9.206;2024-02-21T06:36:11;6.53;;;2.83;;
11313;SDS011;5712;48.858;9.206;2024-02-21T06:38:37;4.73;;;2.47;;
11313;SDS011;5712;48.858;9.206;2024-02-21T06:41:05;7.37;;;2.57;;
11313;SDS011;5712;48.858;9.206;2024-02-21T06:43:32;5.43;;;2.50;;
11313;SDS011;5712;48.858;9.206;2024-02-21T06:45:58;5.73;;;2.50;;
11313;SDS011;5712;48.858;9.206;2024-02-21T06:48:25;6.07;;;2.50;;
11313;SDS011;5712;48.858;9.206;2024-02-21T06:50:51;5.23;;;2.73;;
11313;SDS011;5712;48.858;9.206;2024-02-21T06:53:18;9.00;;;2.77;;
11313;SDS011;5712;48.858;9.206;2024-02-21T06:55:44;3.77;;;2.20;;
11313;SDS011;5712;48.858;9.206;2024-02-21T06:58:12;2.80;;;2.00;;
11313;SDS011;5712;48.858;9.206;2024-02-21T07:00:42;5.83;;;2.67;;
11313;SDS011;5712;48.858;9.206;2024-02-21T07:03:08;4.33;;;2.10;;
11313;SDS011;5712;48.858;9.206;2024-02-21T07:05:35;4.40;;;1.93;;
11313;SDS011;5712;48.858;9.206;2024-02-21T07:08:01;6.03;;;3.13;;
11313;SDS011;5712;48.858;9.206;2024-02-21T07:10:29;4.20;;;2.30;;
11313;SDS011;5712;48.858;9.206;2024-02-21T07:12:56;5.13;;;2.50;;
11313;SDS011;5712;48.858;9.206;2024-02-21T07:15:24;8.23;;;2.30;;
11313;SDS011;5712;48.858;9.206;2024-02-21T07:17:53;6.20;;;2.40;;
11313;SDS011;5712;48.858;9.206;2024-02-21T07:20:20;2.80;;;1.80;;
11313;SDS011;5712;48.858;9.206;2024-02-21T07:22:46;4.67;;;2.17;;
11313;SDS011;5712;48.858;9.206;2024-02-21T07:25:13;5.73;;;2.30;;
11313;SDS011;5712;48.858;9.206;2024-02-21T07:27:39;3.97;;;1.93;;
11313;SDS011;5712;48.858;9.206;2024-02-21T07:30:07;4.87;;;2.10;;
11313;SDS011;5712;48.858;9.206;2024-02-21T07:32:35;3.63;;;2.10;;
11313;SDS011;5712;48.858;9.206;2024-02-21T07:35:02;4.03;;;2.27;;
11313;SDS011;5712;48.858;9.206;2024-02-21T07:37:28;7.10;;;2.03;;
11313;SDS011;5712;48.858;9.206;2024-02-21T07:39:55;4.27;;;2.33;;
11313;SDS011;5712;48.858;9.206;2024-02-21T07:42:21;3.30;;;1.90;;
11313;SDS011;5712;48.858;9.206;2024-02-21T07:44:48;5.73;;;2.27;;
11313;SDS011;5712;48.858;9.206;2024-02-21T07:47:14;3.73;;;1.97;;
11313;SDS011;5712;48.858;9.206;2024-02-21T07:49:43;4.43;;;1.87;;
11313;SDS011;5712;48.858;9.206;2024-02-21T07:52:10;4.77;;;2.37;;
11313;SDS011;5712;48.858;9.206;2024-02-21T07:54:37;4.90;;;2.30;;
11313;SDS011;5712;48.858;9.206;2024-02-21T07:57:03;4.27;;;1.80;;
11313;SDS011;5712;48.858;9.206;2024-02-21T07:59:30;6.87;;;2.07;;
11313;SDS011;5712;48.858;9.206;2024-02-21T08:01:57;5.30;;;1.83;;
11313;SDS011;5712;48.858;9.206;2024-02-21T08:04:23;4.77;;;1.83;;
11313;SDS011;5712;48.858;9.206;2024-02-21T08:06:52;4.63;;;1.90;;
11313;SDS011;5712;48.858;9.206;2024-02-21T08:09:20;4.20;;;1.83;;
11313;SDS011;5712;48.858;9.206;2024-02-21T08:11:47;3.90;;;1.60;;
11313;SDS011;5712;48.858;9.206;2024-02-21T08:14:15;6.17;;;1.90;;
11313;SDS011;5712;48.858;9.206;2024-02-21T08:16:42;3.77;;;1.80;;
11313;SDS011;5712;48.858;9.206;2024-02-21T08:19:08;5.60;;;1.83;;
11313;SDS011;5712;48.858;9.206;2024-02-21T08:21:35;2.70;;;1.53;;
11313;SDS011;5712;48.858;9.206;2024-02-21T08:24:03;3.93;;;2.13;;
11313;SDS011;5712;48.858;9.206;2024-02-21T08:26:30;4.00;;;1.47;;
11313;SDS011;5712;48.858;9.206;2024-02-21T08:28:57;2.53;;;1.57;;
11313;SDS011;5712;48.858;9.206;2024-02-21T08:31:24;3.10;;;1.80;;
11313;SDS011;5712;48.858;9.206;2024-02-21T08:33:56;4.67;;;1.80;;
11313;SDS011;5712;48.858;9.206;2024-02-21T08:36:27;4.60;;;1.67;;
11313;SDS011;5712;48.858;9.206;2024-02-21T08:38:54;4.73;;;1.73;;
11313;SDS011;5712;48.858;9.206;2024-02-21T08:41:21;5.30;;;1.50;;
11313;SDS011;5712;48.858;9.206;2024-02-21T08:43:49;3.23;;;1.83;;
11313;SDS011;5712;48.858;9.206;2024-02-21T08:46:15;4.60;;;1.60;;
11313;SDS011;5712;48.858;9.206;2024-02-21T08:48:42;3.73;;;1.77;;
11313;SDS011;5712;48.858;9.206;2024-02-21T08:51:09;2.53;;;1.77;;
11313;SDS011;5712;48.858;9.206;2024-02-21T08:53:35;3.40;;;1.70;;
11313;SDS011;5712;48.858;9.206;2024-02-21T08:56:03;2.60;;;1.70;;
11313;SDS011;5712;48.858;9.206;2024-02-21T08:58:31;2.33;;;1.33;;
11313;SDS011;5712;48.858;9.206;2024-02-21T09:00:58;3.53;;;1.67;;
11313;SDS011;5712;48.858;9.206;2024-02-21T09:03:25;2.53;;;1.40;;
11313;SDS011;5712;48.858;9.206;2024-02-21T09:05:51;4.20;;;1.50;;
11313;SDS011;5712;48.858;9.206;2024-02-21T09:08:18;4.67;;;1.83;;
11313;SDS011;5712;48.858;9.206;2024-02-21T09:10:44;4.53;;;1.60;;
11313;SDS011;5712;48.858;9.206;2024-02-21T09:13:11;4.53;;;1.60;;
11313;SDS011;5712;48.858;9.206;2024-02-21T09:15:39;6.33;;;1.57;;
11313;SDS011;5712;48.858;9.206;2024-02-21T09:18:05;4.33;;;1.53;;
11313;SDS011;5712;48.858;9.206;2024-02-21T09:20:32;2.23;;;1.50;;
11313;SDS011;5712;48.858;9.206;2024-02-21T09:22:58;2.53;;;1.50;;
11313;SDS011;5712;48.858;9.206;2024-02-21T09:25:25;2.87;;;1.80;;
11313;SDS011;5712;48.858;9.206;2024-02-21T09:27:53;3.90;;;1.87;;
11313;SDS011;5712;48.858;9.206;2024-02-21T09:30:20;5.73;;;1.80;;
11313;SDS011;5712;48.858;9.206;2024-02-21T09:32:48;5.97;;;1.83;;
11313;SDS011;5712;48.858;9.206;2024-02-21T09:35:14;4.07;;;2.03;;
11313;SDS011;5712;48.858;9.206;2024-02-21T09:37:41;2.43;;;1.77;;
11313;SDS011;5712;48.858;9.206;2024-02-21T09:40:08;3.27;;;1.80;;
11313;SDS011;5712;48.858;9.206;2024-02-21T09:42:36;3.53;;;1.40;;
11313;SDS011;5712;48.858;9.206;2024-02-21T09:45:05;4.97;;;1.30;;
11313;SDS011;5712;48.858;9.206;2024-02-21T09:47:38;2.43;;;1.50;;
11313;SDS011;5712;48.858;9.206;2024-02-21T09:50:14;5.03;;;2.00;;
11313;SDS011;5712;48.858;9.206;2024-02-21T09:52:43;5.47;;;1.70;;
11313;SDS011;5712;48.858;9.206;2024-02-21T09:55:11;4.17;;;1.50;;
11313;SDS011;5712;48.858;9.206;2024-02-21T09:57:39;6.63;;;1.97;;
11313;SDS011;5712;48.858;9.206;2024-02-21T10:00:06;4.77;;;1.50;;
11313;SDS011;5712;48.858;9.206;2024-02-21T10:02:33;3.70;;;1.53;;
11313;SDS011;5712;48.858;9.206;2024-02-21T10:05:00;4.27;;;1.83;;
11313;SDS011;5712;48.858;9.206;2024-02-21T10:07:30;4.10;;;1.80;;
11313;SDS011;5712;48.858;9.206;2024-02-21T10:10:00;2.27;;;1.20;;
11313;SDS011;5712;48.858;9.206;2024-02-21T10:12:27;4.80;;;1.77;;
11313;SDS011;5712;48.858;9.206;2024-02-21T10:14:59;6.40;;;1.80;;
11313;SDS011;5712;48.858;9.206;2024-02-21T10:17:26;3.27;;;1.37;;
11313;SDS011;5712;48.858;9.206;2024-02-21T10:19:53;1.90;;;1.50;;
11313;SDS011;5712;48.858;9.206;2024-02-21T10:22:19;2.63;;;1.20;;
11313;SDS011;5712;48.858;9.206;2024-02-21T10:24:47;5.37;;;1.93;;
11313;SDS011;5712;48.858;9.206;2024-02-21T10:27:14;2.47;;;1.10;;
11313;SDS011;5712;48.858;9.206;2024-02-21T10:29:40;3.77;;;1.47;;
11313;SDS011;5712;48.858;9.206;2024-02-21T10:32:08;4.03;;;1.67;;
11313;SDS011;5712;48.858;9.206;2024-02-21T10:34:36;3.07;;;1.50;;
11313;SDS011;5712;48.858;9.206;2024-02-21T10:37:03;4.53;;;1.50;;
11313;SDS011;5712;48.858;9.206;2024-02-21T10:39:31;5.22;;;1.80;;
11313;SDS011;5712;48.858;9.206;2024-02-21T10:42:00;3.63;;;1.70;;
11313;SDS011;5712;48.858;9.206;2024-02-21T10:44:29;4.33;;;1.80;;
11313;SDS011;5712;48.858;9.206;2024-02-21T10:46:57;3.17;;;1.55;;
11313;SDS011;5712;48.858;9.206;2024-02-21T10:49:24;3.33;;;1.53;;
11313;SDS011;5712;48.858;9.206;2024-02-21T10:51:54;4.20;;;1.67;;
11313;SDS011;5712;48.858;9.206;2024-02-21T10:54:32;4.97;;;1.83;;
11313;SDS011;5712;48.858;9.206;2024-02-21T10:57:08;1.93;;;1.40;;
11313;SDS011;5712;48.858;9.206;2024-02-21T10:59:36;2.73;;;1.47;;
11313;SDS011;5712;48.858;9.206;2024-02-21T11:02:03;5.57;;;1.83;;
11313;SDS011;5712;48.858;9.206;2024-02-21T11:04:30;3.37;;;1.30;;
11313;SDS011;5712;48.858;9.206;2024-02-21T11:07:01;2.57;;;1.60;;
11313;SDS011;5712;48.858;9.206;2024-02-21T11:09:32;3.03;;;1.30;;
11313;SDS011;5712;48.858;9.206;2024-02-21T11:12:01;3.13;;;1.40;;
11313;SDS011;5712;48.858;9.206;2024-02-21T11:14:30;3.03;;;1.60;;
11313;SDS011;5712;48.858;9.206;2024-02-21T11:17:01;2.60;;;1.07;;
11313;SDS011;5712;48.858;9.206;2024-02-21T11:19:28;2.50;;;1.33;;
11313;SDS011;5712;48.858;9.206;2024-02-21T11:21:56;5.00;;;1.57;;
11313;SDS011;5712;48.858;9.206;2024-02-21T11:24:26;3.53;;;1.30;;
11313;SDS011;5712;48.858;9.206;2024-02-21T11:26:54;2.85;;;1.38;;
11313;SDS011;5712;48.858;9.206;2024-02-21T11:29:23;3.70;;;1.60;;
11313;SDS011;5712;48.858;9.206;2024-02-21T11:31:51;6.03;;;2.10;;
11313;SDS011;5712;48.858;9.206;2024-02-21T11:34:19;4.70;;;1.70;;
11313;SDS011;5712;48.858;9.206;2024-02-21T11:36:48;4.17;;;2.47;;
11313;SDS011;5712;48.858;9.206;2024-02-21T11:39:19;2.43;;;1.60;;
11313;SDS011;5712;48.858;9.206;2024-02-21T11:41:47;3.40;;;1.50;;
11313;SDS011;5712;48.858;9.206;2024-02-21T11:44:13;3.43;;;1.23;;
11313;SDS011;5712;48.858;9.206;2024-02-21T11:46:40;2.93;;;1.37;;
11313;SDS011;5712;48.858;9.206;2024-02-21T11:49:08;4.27;;;1.47;;
11313;SDS011;5712;48.858;9.206;2024-02-21T11:51:35;3.58;;;1.40;;
11313;SDS011;5712;48.858;9.206;2024-02-21T11:54:01;3.03;;;1.50;;
11313;SDS011;5712;48.858;9.206;2024-02-21T11:56:29;2.53;;;1.50;;
11313;SDS011;5712;48.858;9.206;2024-02-21T11:58:58;2.37;;;1.20;;
11313;SDS011;5712;48.858;9.206;2024-02-21T12:01:25;3.57;;;1.50;;
11313;SDS011;5712;48.858;9.206;2024-02-21T12:03:51;2.23;;;1.37;;
11313;SDS011;5712;48.858;9.206;2024-02-21T12:06:19;3.23;;;1.30;;
11313;SDS011;5712;48.858;9.206;2024-02-21T12:08:47;2.23;;;1.43;;
11313;SDS011;5712;48.858;9.206;2024-02-21T12:11:20;1.20;;;0.90;;
11313;SDS011;5712;48.858;9.206;2024-02-21T12:13:47;2.70;;;1.40;;
11313;SDS011;5712;48.858;9.206;2024-02-21T12:16:24;3.27;;;1.10;;
11313;SDS011;5712;48.858;9.206;2024-02-21T12:18:52;4.20;;;1.70;;
11313;SDS011;5712;48.858;9.206;2024-02-21T12:21:20;1.67;;;1.10;;
11313;SDS011;5712;48.858;9.206;2024-02-21T12:23:50;2.30;;;1.43;;
11313;SDS011;5712;48.858;9.206;2024-02-21T12:26:16;2.27;;;1.37;;
11313;SDS011;5712;48.858;9.206;2024-02-21T12:28:43;2.57;;;1.63;;
11313;SDS011;5712;48.858;9.206;2024-02-21T12:31:09;3.77;;;1.80;;
11313;SDS011;5712;48.858;9.206;2024-02-21T12:33:36;2.83;;;1.63;;
11313;SDS011;5712;48.858;9.206;2024-02-21T12:36:02;2.57;;;1.00;;
11313;SDS011;5712;48.858;9.206;2024-02-21T12:38:31;1.70;;;1.27;;
11313;SDS011;5712;48.858;9.206;2024-02-21T12:40:57;3.00;;;1.40;;
11313;SDS011;5712;48.858;9.206;2024-02-21T12:43:25;5.27;;;1.40;;
11313;SDS011;5712;48.858;9.206;2024-02-21T12:45:52;1.87;;;1.00;;
11313;SDS011;5712;48.858;9.206;2024-02-21T12:48:18;2.80;;;1.40;;
11313;SDS011;5712;48.858;9.206;2024-02-21T12:50:48;2.87;;;1.50;;
11313;SDS011;5712;48.858;9.206;2024-02-21T12:53:16;5.40;;;1.30;;
11313;SDS011;5712;48.858;9.206;2024-02-21T12:55:45;3.27;;;1.33;;
11313;SDS011;5712;48.858;9.206;2024-02-21T12:58:12;2.53;;;1.10;;
11313;SDS011;5712;48.858;9.206;2024-02-21T13:00:39;3.00;;;1.80;;
11313;SDS011;5712;48.858;9.206;2024-02-21T13:03:06;2.67;;;1.30;;
11313;SDS011;5712;48.858;9.206;2024-02-21T13:05:32;3.03;;;1.40;;
11313;SDS011;5712;48.858;9.206;2024-02-21T13:07:59;2.47;;;1.20;;
11313;SDS011;5712;48.858;9.206;2024-02-21T13:10:25;3.27;;;1.30;;
11313;SDS011;5712;48.858;9.206;2024-02-21T13:12:53;2.13;;;1.37;;
11313;SDS011;5712;48.858;9.206;2024-02-21T13:15:20;2.83;;;1.47;;
11313;SDS011;5712;48.858;9.206;2024-02-21T13:17:46;2.97;;;1.20;;
11313;SDS011;5712;48.858;9.206;2024-02-21T13:20:13;2.83;;;1.40;;
11313;SDS011;5712;48.858;9.206;2024-02-21T13:22:39;2.90;;;1.27;;
11313;SDS011;5712;48.858;9.206;2024-02-21T13:25:06;2.20;;;1.20;;
11313;SDS011;5712;48.858;9.206;2024-02-21T13:27:33;2.60;;;1.20;;
11313;SDS011;5712;48.858;9.206;2024-02-21T13:30:01;1.93;;;1.07;;
11313;SDS011;5712;48.858;9.206;2024-02-21T13:32:30;3.33;;;1.23;;
11313;SDS011;5712;48.858;9.206;2024-02-21T13:34:57;2.60;;;1.30;;
11313;SDS011;5712;48.858;9.206;2024-02-21T13:37:26;1.80;;;0.93;;
11313;SDS011;5712;48.858;9.206;2024-02-21T13:39:53;2.97;;;1.40;;
11313;SDS011;5712;48.858;9.206;2024-02-21T13:42:21;2.43;;;1.10;;
11313;SDS011;5712;48.858;9.206;2024-02-21T13:44:48;2.40;;;1.00;;
11313;SDS011;5712;48.858;9.206;2024-02-21T13:47:16;1.47;;;0.90;;
11313;SDS011;5712;48.858;9.206;2024-02-21T13:49:43;1.03;;;0.83;;
11313;SDS011;5712;48.858;9.206;2024-02-21T13:52:09;1.33;;;1.00;;
11313;SDS011;5712;48.858;9.206;2024-02-21T13:54:36;2.03;;;1.00;;
11313;SDS011;5712;48.858;9.206;2024-02-21T13:57:02;2.13;;;1.20;;
11313;SDS011;5712;48.858;9.206;2024-02-21T13:59:29;3.30;;;1.27;;
11313;SDS011;5712;48.858;9.206;2024-02-21T14:01:58;4.03;;;1.50;;
11313;SDS011;5712;48.858;9.206;2024-02-21T14:04:26;2.60;;;1.37;;
11313;SDS011;5712;48.858;9.206;2024-02-21T14:06:52;1.47;;;1.03;;
11313;SDS011;5712;48.858;9.206;2024-02-21T14:09:19;1.90;;;1.50;;
11313;SDS011;5712;48.858;9.206;2024-02-21T14:11:45;3.23;;;1.23;;
11313;SDS011;5712;48.858;9.206;2024-02-21T14:14:12;4.10;;;1.53;;
11313;SDS011;5712;48.858;9.206;2024-02-21T14:16:40;3.37;;;1.60;;
11313;SDS011;5712;48.858;9.206;2024-02-21T14:19:06;3.50;;;1.97;;
11313;SDS011;5712;48.858;9.206;2024-02-21T14:21:35;4.43;;;1.60;;
11313;SDS011;5712;48.858;9.206;2024-02-21T14:24:02;2.73;;;1.43;;
11313;SDS011;5712;48.858;9.206;2024-02-21T14:26:28;4.27;;;1.57;;
11313;SDS011;5712;48.858;9.206;2024-02-21T14:28:56;3.47;;;1.50;;
11313;SDS011;5712;48.858;9.206;2024-02-21T14:31:22;3.20;;;1.40;;
11313;SDS011;5712;48.858;9.206;2024-02-21T14:33:50;2.73;;;1.40;;
11313;SDS011;5712;48.858;9.206;2024-02-21T14:36:16;2.93;;;1.60;;
11313;SDS011;5712;48.858;9.206;2024-02-21T14:38:44;4.03;;;1.50;;
11313;SDS011;5712;48.858;9.206;2024-02-21T14:41:11;2.33;;;1.27;;
11313;SDS011;5712;48.858;9.206;2024-02-21T14:43:37;3.07;;;1.60;;
11313;SDS011;5712;48.858;9.206;2024-02-21T14:46:04;4.07;;;1.60;;
11313;SDS011;5712;48.858;9.206;2024-02-21T14:48:31;3.23;;;1.10;;
11313;SDS011;5712;48.858;9.206;2024-02-21T14:50:58;3.17;;;1.10;;
11313;SDS011;5712;48.858;9.206;2024-02-21T14:53:24;3.70;;;1.17;;
11313;SDS011;5712;48.858;9.206;2024-02-21T14:55:52;2.30;;;1.20;;
11313;SDS011;5712;48.858;9.206;2024-02-21T14:58:18;3.60;;;1.10;;
11313;SDS011;5712;48.858;9.206;2024-02-21T15:00:45;5.33;;;1.50;;